createdAt,value
2018-05-12T00:02:00.474Z,91.20
2018-05-12T00:04:27.902Z,91.20
2018-05-12T00:06:55.367Z,91.20
2018-05-12T00:09:22.835Z,91.30
2018-05-12T00:11:50.267Z,91.30
2018-05-12T00:14:18.455Z,91.10
2018-05-12T00:16:46.642Z,91.10
2018-05-12T00:19:15.823Z,91.10
2018-05-12T00:21:43.267Z,91.10
2018-05-12T00:24:10.694Z,91.20
2018-05-12T00:26:38.881Z,91.40
2018-05-12T00:29:07.095Z,91.30
2018-05-12T00:31:34.515Z,91.30
2018-05-12T00:34:01.938Z,91.20
2018-05-12T00:36:29.359Z,91.10
2018-05-12T00:38:56.894Z,91.10
2018-05-12T00:41:24.323Z,91.10
2018-05-12T00:43:52.535Z,91.20
2018-05-12T00:46:19.950Z,91.20
2018-05-12T00:48:48.903Z,91.40
2018-05-12T00:51:16.319Z,91.30
2018-05-12T00:53:43.755Z,91.40
2018-05-12T00:56:11.180Z,91.40
2018-05-12T00:58:39.398Z,91.70
2018-05-12T01:01:06.814Z,91.40
2018-05-12T01:03:34.338Z,91.20
2018-05-12T01:06:01.816Z,91.30
2018-05-12T01:08:29.282Z,91.40
2018-05-12T01:10:56.701Z,91.50
2018-05-12T01:13:24.935Z,91.50
2018-05-12T01:15:52.362Z,91.40
2018-05-12T01:18:19.794Z,91.40
2018-05-12T01:20:47.247Z,91.60
2018-05-12T01:23:14.662Z,91.50
2018-05-12T01:25:43.599Z,91.50
2018-05-12T01:28:11.091Z,91.50
2018-05-12T01:30:38.519Z,91.40
2018-05-12T01:33:05.940Z,91.40
2018-05-12T01:35:33.390Z,91.50
2018-05-12T01:38:00.863Z,91.50
2018-05-12T01:40:28.334Z,91.40
2018-05-12T01:42:55.822Z,91.30
2018-05-12T01:45:23.251Z,91.40
2018-05-12T01:47:51.454Z,91.60
2018-05-12T01:50:18.883Z,91.60
2018-05-12T01:52:47.127Z,91.60
2018-05-12T01:55:14.591Z,91.60
2018-05-12T01:57:42.006Z,91.50
2018-05-12T02:00:09.529Z,91.50
2018-05-12T02:02:36.951Z,91.50
2018-05-12T02:05:05.138Z,91.70
2018-05-12T02:07:32.560Z,91.70
2018-05-12T02:10:00.023Z,91.60
2018-05-12T02:12:27.495Z,91.60
2018-05-12T02:14:54.918Z,91.50
2018-05-12T02:17:22.346Z,91.60
2018-05-12T02:19:49.771Z,91.40
2018-05-12T02:22:17.988Z,91.90
2018-05-12T02:24:45.410Z,92.20
2018-05-12T02:27:13.610Z,92.00
2018-05-12T02:29:41.799Z,92.20
2018-05-12T02:32:09.994Z,92.20
2018-05-12T02:34:38.207Z,92.20
2018-05-12T02:37:06.599Z,92.20
2018-05-12T02:39:34.023Z,92.10
2018-05-12T02:42:02.256Z,92.50
2018-05-12T02:44:29.670Z,92.50
2018-05-12T02:46:57.098Z,92.60
2018-05-12T02:49:24.563Z,92.60
2018-05-12T02:51:51.982Z,92.50
2018-05-12T02:54:19.405Z,92.50
2018-05-12T02:56:46.863Z,92.40
2018-05-12T02:59:15.260Z,92.50
2018-05-12T03:01:42.703Z,92.60
2018-05-12T03:04:10.895Z,92.60
2018-05-12T03:06:39.103Z,92.50
2018-05-12T03:09:06.575Z,92.50
2018-05-12T03:11:33.997Z,92.50
2018-05-12T03:14:01.427Z,92.50
2018-05-12T03:16:28.878Z,92.60
2018-05-12T03:18:56.312Z,92.90
2018-05-12T03:21:24.499Z,92.90
2018-05-12T03:23:52.705Z,93.00
2018-05-12T03:26:20.138Z,92.60
2018-05-12T03:28:47.568Z,92.60
2018-05-12T03:31:14.986Z,92.70
2018-05-12T03:33:42.503Z,92.70
2018-05-12T03:36:09.972Z,92.70
2018-05-12T03:38:37.402Z,92.80
2018-05-12T03:41:04.827Z,92.70
2018-05-12T03:43:32.278Z,92.80
2018-05-12T03:45:59.706Z,92.80
2018-05-12T03:48:27.934Z,93.00
2018-05-12T03:50:55.448Z,92.90
2018-05-12T03:53:22.858Z,92.90
2018-05-12T03:55:50.290Z,92.90
2018-05-12T03:58:17.817Z,93.00
2018-05-12T04:00:45.282Z,93.00
2018-05-12T04:03:12.710Z,93.00
2018-05-12T04:05:51.998Z,93.30
2018-05-12T04:08:31.537Z,93.10
2018-05-12T04:11:11.718Z,93.20
2018-05-12T04:13:39.150Z,93.20
2018-05-12T04:16:06.575Z,93.10
2018-05-12T04:18:34.034Z,93.10
2018-05-12T04:21:01.509Z,93.10
2018-05-12T04:23:28.967Z,93.20
2018-05-12T04:25:56.402Z,93.20
2018-05-12T04:28:24.630Z,93.30
2018-05-12T04:30:52.060Z,93.20
2018-05-12T04:33:20.250Z,93.40
2018-05-12T04:35:48.446Z,93.10
2018-05-12T04:38:16.658Z,93.10
2018-05-12T04:40:44.095Z,93.10
2018-05-12T04:43:12.331Z,93.20
2018-05-12T04:45:39.786Z,93.20
2018-05-12T04:48:07.206Z,93.20
2018-05-12T04:50:34.638Z,93.20
2018-05-12T04:53:02.067Z,93.20
2018-05-12T04:55:30.267Z,93.50
2018-05-12T04:57:57.754Z,93.70
2018-05-12T05:00:25.198Z,93.50
2018-05-12T05:02:53.386Z,93.70
2018-05-12T05:05:21.582Z,93.70
2018-05-12T05:07:49.009Z,93.70
2018-05-12T05:10:16.532Z,93.80
2018-05-12T05:12:43.962Z,93.80
2018-05-12T05:15:12.193Z,94.00
2018-05-12T05:17:39.626Z,93.70
2018-05-12T05:20:07.819Z,94.00
2018-05-12T05:22:36.020Z,94.00
2018-05-12T05:25:03.447Z,94.00
2018-05-12T05:27:30.972Z,94.10
2018-05-12T05:29:58.403Z,94.10
2018-05-12T05:32:26.630Z,94.40
2018-05-12T05:34:54.099Z,94.20
2018-05-12T05:37:21.535Z,94.30
2018-05-12T05:39:49.731Z,94.10
2018-05-12T05:42:17.926Z,94.10
2018-05-12T05:44:45.410Z,94.10
2018-05-12T05:47:12.842Z,94.00
2018-05-12T05:49:41.102Z,93.70
2018-05-12T05:52:09.243Z,93.80
2018-05-12T05:54:36.735Z,93.80
2018-05-12T05:57:04.153Z,93.80
2018-05-12T05:59:31.591Z,93.60
2018-05-12T06:01:59.050Z,93.40
2018-05-12T06:04:26.483Z,93.50
2018-05-12T06:06:54.758Z,93.40
2018-05-12T06:09:22.866Z,93.30
2018-05-12T06:11:50.347Z,93.20
2018-05-12T06:14:17.834Z,93.30
2018-05-12T06:16:45.291Z,93.10
2018-05-12T06:19:13.679Z,93.20
2018-05-12T06:21:41.101Z,93.00
2018-05-12T06:24:09.438Z,93.00
2018-05-12T06:26:36.914Z,93.10
2018-05-12T06:29:04.355Z,92.70
2018-05-12T06:31:32.543Z,92.60
2018-05-12T06:34:00.739Z,92.40
2018-05-12T06:36:28.165Z,92.40
2018-05-12T06:38:55.694Z,92.10
2018-05-12T06:41:23.162Z,92.30
2018-05-12T06:43:50.634Z,92.20
2018-05-12T06:46:18.101Z,91.70
2018-05-12T06:48:45.527Z,92.00
2018-05-12T06:51:12.963Z,92.00
2018-05-12T06:53:40.386Z,92.00
2018-05-12T06:56:08.582Z,92.00
2018-05-12T06:58:36.070Z,92.10
2018-05-12T07:01:03.497Z,91.80
2018-05-12T07:03:30.923Z,91.80
2018-05-12T07:05:58.353Z,91.40
2018-05-12T07:08:25.787Z,91.70
2018-05-12T07:10:53.319Z,91.80
2018-05-12T07:13:20.783Z,91.00
2018-05-12T07:15:48.214Z,90.60
2018-05-12T07:18:15.645Z,91.00
2018-05-12T07:20:43.070Z,91.10
2018-05-12T07:23:11.336Z,90.70
2018-05-12T07:25:38.783Z,90.80
2018-05-12T07:28:06.191Z,90.90
2018-05-12T07:30:34.403Z,90.70
2018-05-12T07:33:01.827Z,90.70
2018-05-12T07:35:30.791Z,90.70
2018-05-12T07:37:58.214Z,90.70
2018-05-12T07:40:26.414Z,90.10
2018-05-12T07:42:53.910Z,90.10
2018-05-12T07:45:21.351Z,90.50
2018-05-12T07:47:49.569Z,90.10
2018-05-12T07:50:16.987Z,90.10
2018-05-12T07:52:44.506Z,89.00
2018-05-12T07:55:11.966Z,90.00
2018-05-12T07:57:39.438Z,89.30
2018-05-12T08:00:07.052Z,89.80
2018-05-12T08:02:34.470Z,89.20
2018-05-12T08:05:01.959Z,90.00
2018-05-12T08:07:29.418Z,87.80
2018-05-12T08:09:56.878Z,90.00
2018-05-12T08:12:24.302Z,89.60
2018-05-12T08:14:51.827Z,88.70
2018-05-12T08:17:19.302Z,88.50
2018-05-12T08:19:46.771Z,87.60
2018-05-12T08:22:14.247Z,87.10
2018-05-12T08:24:41.717Z,85.40
2018-05-12T08:27:09.182Z,86.30
2018-05-12T08:29:36.606Z,85.90
2018-05-12T08:32:04.967Z,86.00
2018-05-12T08:34:32.391Z,86.70
2018-05-12T08:37:00.614Z,84.30
2018-05-12T08:39:28.039Z,84.20
2018-05-12T08:41:56.406Z,84.80
2018-05-12T08:44:23.928Z,84.80
2018-05-12T08:49:41.706Z,83.90
2018-05-12T08:52:09.173Z,79.70
2018-05-12T08:54:36.602Z,78.50
2018-05-12T08:57:04.118Z,81.90
2018-05-12T08:59:31.586Z,80.60
2018-05-12T09:01:59.018Z,80.70
2018-05-12T09:04:26.628Z,78.50
2018-05-12T09:06:54.814Z,79.40
2018-05-12T09:09:22.240Z,79.40
2018-05-12T09:11:49.755Z,78.00
2018-05-12T09:14:17.178Z,76.40
2018-05-12T09:16:44.618Z,78.20
2018-05-12T09:19:12.101Z,76.20
2018-05-12T09:21:39.633Z,77.60
2018-05-12T09:24:07.798Z,75.80
2018-05-12T09:26:35.994Z,72.70
2018-05-12T09:29:04.198Z,73.60
2018-05-12T09:31:31.658Z,73.60
2018-05-12T09:33:59.142Z,72.00
2018-05-12T09:36:26.605Z,72.20
2018-05-12T09:38:54.074Z,70.60
2018-05-12T09:41:21.539Z,72.80
2018-05-12T09:43:49.010Z,69.70
2018-05-12T09:46:16.479Z,73.10
2018-05-12T09:48:43.963Z,72.20
2018-05-12T09:51:11.422Z,71.30
2018-05-12T09:53:38.846Z,67.10
2018-05-12T09:56:06.274Z,67.00
2018-05-12T09:58:33.731Z,67.10
2018-05-12T10:01:01.164Z,64.50
2018-05-12T10:03:28.730Z,68.10
2018-05-12T10:05:56.151Z,67.40
2018-05-12T10:08:23.578Z,66.70
2018-05-12T10:10:51.002Z,66.40
2018-05-12T10:13:18.469Z,63.40
2018-05-12T10:15:45.915Z,64.30
2018-05-12T10:18:13.338Z,63.10
2018-05-12T10:20:40.793Z,61.00
2018-05-12T10:23:08.327Z,62.10
2018-05-12T10:25:36.502Z,63.90
2018-05-12T10:28:03.922Z,63.90
2018-05-12T10:30:31.456Z,61.80
2018-05-12T10:32:58.905Z,63.00
2018-05-12T10:35:27.106Z,65.00
2018-05-12T10:37:54.529Z,65.00
2018-05-12T10:40:21.946Z,68.60
2018-05-12T10:42:49.380Z,64.30
2018-05-12T10:45:16.870Z,62.90
2018-05-12T10:47:44.230Z,59.60
2018-05-12T10:50:12.414Z,60.80
2018-05-12T10:52:40.626Z,56.30
2018-05-12T10:55:08.047Z,56.30
2018-05-12T10:57:35.566Z,55.50
2018-05-12T11:00:02.987Z,56.10
2018-05-12T11:02:30.414Z,56.80
2018-05-12T11:04:57.830Z,56.90
2018-05-12T11:07:25.361Z,59.10
2018-05-12T11:09:52.774Z,60.00
2018-05-12T11:12:20.286Z,59.10
2018-05-12T11:14:47.764Z,59.30
2018-05-12T11:17:15.984Z,58.40
2018-05-12T11:19:43.514Z,59.80
2018-05-12T11:22:10.939Z,58.00
2018-05-12T11:24:38.452Z,57.70
2018-05-12T11:27:05.926Z,54.90
2018-05-12T11:29:33.342Z,54.70
2018-05-12T11:32:00.862Z,55.50
2018-05-12T11:34:28.286Z,56.40
2018-05-12T11:36:55.778Z,58.70
2018-05-12T11:39:23.991Z,57.10
2018-05-12T11:41:51.459Z,57.00
2018-05-12T11:44:18.879Z,55.70
2018-05-12T11:46:46.399Z,51.60
2018-05-12T11:49:13.890Z,52.70
2018-05-12T11:51:41.313Z,52.70
2018-05-12T11:54:09.555Z,51.00
2018-05-12T11:56:36.997Z,51.00
2018-05-12T11:59:04.467Z,49.80
2018-05-12T12:01:31.936Z,50.20
2018-05-12T12:03:59.512Z,48.60
2018-05-12T12:06:27.696Z,48.20
2018-05-12T12:08:55.113Z,48.20
2018-05-12T12:11:22.537Z,47.40
2018-05-12T12:13:49.959Z,45.50
2018-05-12T12:16:17.471Z,47.00
2018-05-12T12:18:44.891Z,44.90
2018-05-12T12:21:12.313Z,45.70
2018-05-12T12:23:39.738Z,45.30
2018-05-12T12:26:07.162Z,45.00
2018-05-12T12:28:34.627Z,47.50
2018-05-12T12:31:02.096Z,47.20
2018-05-12T12:33:29.568Z,49.50
2018-05-12T12:35:56.996Z,48.90
2018-05-12T12:38:25.173Z,48.00
2018-05-12T12:40:53.366Z,48.80
2018-05-12T12:43:21.566Z,49.20
2018-05-12T12:45:49.778Z,49.30
2018-05-12T12:48:17.244Z,49.20
2018-05-12T12:50:45.435Z,48.60
2018-05-12T12:53:12.898Z,48.60
2018-05-12T12:55:40.402Z,48.30
2018-05-12T12:58:07.827Z,48.30
2018-05-12T13:00:35.242Z,47.90
2018-05-12T13:03:02.678Z,47.90
2018-05-12T13:05:30.090Z,47.70
2018-05-12T13:07:57.620Z,48.00
2018-05-12T13:10:25.091Z,45.40
2018-05-12T13:12:52.515Z,45.20
2018-05-12T13:15:19.940Z,45.20
2018-05-12T13:17:47.363Z,45.90
2018-05-12T13:20:15.582Z,46.70
2018-05-12T13:22:43.007Z,46.60
2018-05-12T13:25:11.930Z,45.50
2018-05-12T13:27:40.119Z,45.50
2018-05-12T13:30:08.299Z,44.40
2018-05-12T13:32:36.486Z,43.10
2018-05-12T13:35:04.671Z,44.70
2018-05-12T13:37:32.862Z,45.50
2018-05-12T13:40:01.051Z,46.50
2018-05-12T13:42:29.238Z,47.70
2018-05-12T13:44:57.454Z,47.00
2018-05-12T13:47:24.919Z,46.90
2018-05-12T13:49:52.335Z,45.50
2018-05-12T13:52:19.762Z,46.10
2018-05-12T13:54:47.230Z,47.50
2018-05-12T13:57:14.656Z,49.20
2018-05-12T13:59:42.070Z,48.30
2018-05-12T14:02:09.539Z,48.40
2018-05-12T14:04:36.959Z,45.90
2018-05-12T14:07:04.387Z,45.90
2018-05-12T14:09:31.843Z,44.20
2018-05-12T14:11:59.272Z,44.90
2018-05-12T14:14:26.778Z,44.60
2018-05-12T14:16:54.258Z,43.80
2018-05-12T14:19:21.720Z,44.30
2018-05-12T14:21:49.910Z,46.00
2018-05-12T14:24:17.342Z,46.00
2018-05-12T14:26:44.767Z,45.40
2018-05-12T14:29:12.215Z,43.90
2018-05-12T14:31:39.687Z,43.20
2018-05-12T14:34:07.879Z,42.40
2018-05-12T14:36:35.350Z,42.50
2018-05-12T14:39:02.774Z,43.90
2018-05-12T14:41:30.198Z,43.40
2018-05-12T14:43:57.650Z,43.50
2018-05-12T14:46:25.075Z,43.70
2018-05-12T14:48:52.498Z,44.00
2018-05-12T14:51:19.927Z,45.40
2018-05-12T14:53:47.390Z,47.40
2018-05-12T14:56:15.615Z,50.00
2018-05-12T14:58:43.090Z,50.00
2018-05-12T15:01:10.512Z,52.10
2018-05-12T15:03:37.938Z,53.90
2018-05-12T15:06:05.401Z,53.70
2018-05-12T15:08:32.830Z,54.30
2018-05-12T15:11:01.126Z,53.40
2018-05-12T15:13:29.314Z,51.10
2018-05-12T15:15:57.501Z,53.40
2018-05-12T15:18:25.796Z,53.10
2018-05-12T15:20:53.974Z,53.90
2018-05-12T15:23:22.173Z,54.90
2018-05-12T15:25:50.362Z,56.00
2018-05-12T15:28:17.774Z,55.90
2018-05-12T15:30:45.219Z,52.80
2018-05-12T15:33:12.635Z,53.70
2018-05-12T15:35:40.087Z,55.10
2018-05-12T15:38:07.520Z,55.20
2018-05-12T15:40:34.938Z,54.80
2018-05-12T15:43:02.359Z,55.20
2018-05-12T15:45:29.786Z,56.10
2018-05-12T15:47:57.295Z,54.60
2018-05-12T15:50:24.734Z,56.40
2018-05-12T15:52:52.234Z,55.30
2018-05-12T15:55:19.657Z,55.90
2018-05-12T15:57:47.185Z,56.20
2018-05-12T16:00:14.650Z,57.10
2018-05-12T16:02:42.067Z,57.30
2018-05-12T16:05:09.594Z,57.10
2018-05-12T16:07:37.005Z,56.80
2018-05-12T16:10:04.435Z,56.20
2018-05-12T16:12:31.855Z,55.70
2018-05-12T16:14:59.271Z,55.30
2018-05-12T16:17:26.694Z,56.50
2018-05-12T16:19:54.922Z,58.40
2018-05-12T16:22:22.391Z,58.40
2018-05-12T16:24:49.857Z,60.00
2018-05-12T16:27:17.298Z,60.50
2018-05-12T16:29:45.514Z,62.60
2018-05-12T16:32:12.982Z,62.60
2018-05-12T16:34:40.402Z,62.20
2018-05-12T16:37:07.930Z,61.10
2018-05-12T16:39:35.394Z,60.50
2018-05-12T16:42:02.966Z,61.80
2018-05-12T16:44:31.144Z,62.10
2018-05-12T16:46:59.343Z,62.00
2018-05-12T16:49:26.762Z,61.80
2018-05-12T16:51:54.286Z,61.90
2018-05-12T16:54:21.703Z,63.10
2018-05-12T16:56:49.894Z,61.10
2018-05-12T16:59:17.496Z,61.10
2018-05-12T17:01:44.822Z,62.90
2018-05-12T17:04:12.342Z,61.20
2018-05-12T17:06:39.772Z,63.50
2018-05-12T17:09:07.283Z,65.40
2018-05-12T17:11:34.758Z,65.50
2018-05-12T17:14:02.182Z,64.50
2018-05-12T17:16:29.597Z,66.60
2018-05-12T17:18:57.061Z,66.70
2018-05-12T17:21:24.531Z,67.00
2018-05-12T17:23:52.011Z,66.90
2018-05-12T17:26:19.426Z,64.70
2018-05-12T17:28:46.939Z,66.10
2018-05-12T17:31:14.413Z,67.10
2018-05-12T17:33:41.885Z,69.20
2018-05-12T17:36:09.352Z,69.60
2018-05-12T17:38:36.770Z,70.20
2018-05-12T17:41:05.707Z,70.00
2018-05-12T17:43:33.905Z,70.70
2018-05-12T17:46:01.322Z,70.70
2018-05-12T17:48:28.851Z,71.80
2018-05-12T17:50:56.318Z,71.90
2018-05-12T17:53:23.788Z,72.60
2018-05-12T17:55:51.207Z,74.80
2018-05-12T17:58:20.141Z,74.20
2018-05-12T18:00:48.436Z,75.20
2018-05-12T18:03:15.821Z,75.20
2018-05-12T18:05:43.987Z,75.00
2018-05-12T18:08:12.197Z,75.40
2018-05-12T18:10:39.670Z,75.40
2018-05-12T18:13:07.114Z,76.00
2018-05-12T18:15:35.299Z,76.20
2018-05-12T18:18:03.494Z,75.70
2018-05-12T18:20:30.914Z,75.60
2018-05-12T18:22:58.374Z,74.80
2018-05-12T18:25:25.886Z,74.10
2018-05-12T18:27:54.203Z,74.00
2018-05-12T18:30:21.620Z,74.00
2018-05-12T18:32:50.578Z,74.60
2018-05-12T18:35:17.994Z,74.50
2018-05-12T18:37:45.430Z,75.00
2018-05-12T18:40:12.846Z,75.20
2018-05-12T18:42:40.331Z,75.90
2018-05-12T18:45:08.514Z,76.90
2018-05-12T18:47:36.738Z,77.20
2018-05-12T18:50:04.154Z,77.10
2018-05-12T18:52:33.126Z,77.20
2018-05-12T18:55:00.550Z,77.20
2018-05-12T18:57:28.758Z,77.60
2018-05-12T18:59:56.175Z,77.50
2018-05-12T19:02:24.428Z,77.10
2018-05-12T19:04:51.838Z,77.10
2018-05-12T19:07:20.100Z,77.90
2018-05-12T19:09:47.490Z,77.90
2018-05-12T19:12:14.911Z,78.20
2018-05-12T19:14:42.343Z,77.80
2018-05-12T19:17:09.783Z,77.60
2018-05-12T19:19:37.178Z,77.60
2018-05-12T19:22:04.594Z,77.90
2018-05-12T19:24:32.018Z,77.20
2018-05-12T19:26:59.438Z,77.20
2018-05-12T19:29:26.861Z,77.00
2018-05-12T19:31:55.043Z,77.40
2018-05-12T19:34:22.471Z,77.40
2018-05-12T19:36:49.887Z,77.20
2018-05-12T19:39:18.083Z,77.40
2018-05-12T19:41:46.302Z,77.60
2018-05-12T19:44:13.723Z,77.60
2018-05-12T19:46:41.143Z,77.80
2018-05-12T19:49:08.575Z,78.00
2018-05-12T19:51:36.822Z,78.20
2018-05-12T19:54:04.331Z,78.20
2018-05-12T19:56:32.513Z,77.60
2018-05-12T19:59:00.709Z,77.70
2018-05-12T20:01:28.887Z,77.80
2018-05-12T20:03:57.126Z,77.70
2018-05-12T20:06:25.258Z,77.90
2018-05-12T20:08:53.450Z,78.20
2018-05-12T20:11:21.663Z,77.80
2018-05-12T20:13:49.087Z,77.80
2018-05-12T20:16:16.511Z,78.00
2018-05-12T20:18:43.939Z,77.70
2018-05-12T20:21:11.379Z,77.90
2018-05-12T20:23:38.806Z,78.00
2018-05-12T20:26:06.222Z,78.20
2018-05-12T20:28:33.647Z,78.50
2018-05-12T20:31:01.068Z,78.40
2018-05-12T20:33:28.486Z,78.60
2018-05-12T20:35:55.903Z,78.60
2018-05-12T20:38:23.326Z,78.80
2018-05-12T20:40:50.792Z,78.70
2018-05-12T20:43:18.223Z,78.60
2018-05-12T20:45:45.734Z,78.60
2018-05-12T20:48:13.918Z,78.70
2018-05-12T20:50:41.340Z,78.70
2018-05-12T20:53:08.766Z,78.50
2018-05-12T20:55:36.225Z,78.30
2018-05-12T20:58:03.657Z,78.30
2018-05-12T21:00:31.166Z,78.30
2018-05-12T21:02:58.608Z,78.50
2018-05-12T21:05:26.107Z,78.50
2018-05-12T21:07:53.596Z,78.30
2018-05-12T21:10:20.996Z,78.40
2018-05-12T21:12:48.515Z,78.50
2018-05-12T21:15:15.941Z,78.10
2018-05-12T21:17:43.360Z,78.30
2018-05-12T21:20:10.790Z,77.90
2018-05-12T21:22:38.293Z,78.00
2018-05-12T21:25:05.719Z,78.10
2018-05-12T21:27:33.230Z,78.10
2018-05-12T21:30:00.706Z,78.00
2018-05-12T21:32:28.178Z,78.00
2018-05-12T21:34:55.606Z,78.30
2018-05-12T21:37:23.018Z,78.20
2018-05-12T21:39:50.479Z,78.10
2018-05-12T21:42:17.914Z,78.00
2018-05-12T21:44:46.110Z,78.30
2018-05-12T21:47:14.299Z,78.40
2018-05-12T21:49:42.487Z,78.40
2018-05-12T21:52:10.697Z,78.30
2018-05-12T21:54:38.128Z,78.30
2018-05-12T21:57:05.538Z,78.40
2018-05-12T21:59:32.966Z,78.50
2018-05-12T22:02:00.390Z,78.50
2018-05-12T22:04:27.818Z,78.70
2018-05-12T22:06:56.034Z,78.40
2018-05-12T22:09:23.467Z,78.40
2018-05-12T22:11:51.650Z,78.80
2018-05-12T22:14:19.154Z,78.80
2018-05-12T22:16:46.629Z,78.80
2018-05-12T22:19:14.957Z,78.60
2018-05-12T22:21:42.374Z,78.70
2018-05-12T22:24:09.790Z,78.50
2018-05-12T22:26:37.322Z,78.60
2018-05-12T22:29:04.746Z,78.80
2018-05-12T22:31:32.982Z,78.80
2018-05-12T22:34:00.454Z,78.80
2018-05-12T22:36:28.638Z,78.80
2018-05-12T22:38:56.114Z,79.50
2018-05-12T22:41:23.575Z,78.90
2018-05-12T22:43:50.994Z,78.70
2018-05-12T22:46:18.528Z,78.80
2018-05-12T22:48:45.985Z,79.10
2018-05-12T22:51:13.414Z,78.50
2018-05-12T22:53:40.828Z,78.60
2018-05-12T22:56:08.298Z,78.80
2018-05-12T22:58:35.710Z,79.00
2018-05-12T23:01:03.955Z,78.80
2018-05-12T23:03:31.427Z,78.80
2018-05-12T23:05:58.846Z,79.00
2018-05-12T23:08:26.267Z,79.00
2018-05-12T23:10:53.732Z,79.00
2018-05-12T23:13:21.159Z,79.40
2018-05-12T23:15:48.667Z,79.70
2018-05-12T23:18:16.090Z,80.10
2018-05-12T23:20:44.274Z,80.30
2018-05-12T23:23:11.802Z,80.20
2018-05-12T23:25:39.217Z,80.40
2018-05-12T23:28:07.407Z,80.60
2018-05-12T23:30:34.818Z,80.60
2018-05-12T23:33:02.273Z,80.60
2018-05-12T23:35:30.454Z,80.60
2018-05-12T23:37:58.643Z,80.80
2018-05-12T23:40:26.951Z,80.70
2018-05-12T23:42:54.423Z,80.70
2018-05-12T23:45:21.838Z,81.40
2018-05-12T23:47:50.084Z,81.40
2018-05-12T23:50:17.550Z,81.40
2018-05-12T23:52:44.977Z,81.60
2018-05-12T23:55:12.402Z,82.10
2018-05-12T23:57:39.857Z,82.40
